Time;durP1;ratioP1;P1;durP2;ratioP2;P2;SDS_P1;SDS_P2;PMS_P1;PMS_P2;Temp;Humidity;BMP_temperature;BMP_pressure;BME280_temperature;BME280_humidity;BME280_pressure;Samples;Min_cycle;Max_cycle;Signal;HPM_P1;HPM_P2
2021/07/02 00:02:24;;;;;;;10.33;7.50;;;16.40;76.40;;;;;;5054987;28;20192;-81
2021/07/02 00:04:50;;;;;;;13.30;7.33;;;16.30;77.70;;;;;;5055015;28;20241;-76
2021/07/02 00:07:15;;;;;;;10.77;7.60;;;16.30;77.50;;;;;;5055255;28;20203;-81
2021/07/02 00:09:41;;;;;;;10.93;7.20;;;16.30;77.60;;;;;;5055808;28;20716;-77
2021/07/02 00:12:07;;;;;;;12.30;7.67;;;16.40;77.10;;;;;;5055202;28;20656;-80
2021/07/02 00:14:33;;;;;;;10.97;8.30;;;16.50;74.10;;;;;;5054709;28;20184;-81
2021/07/02 00:16:58;;;;;;;11.90;7.67;;;16.70;67.80;;;;;;5054818;28;20177;-80
2021/07/02 00:19:25;;;;;;;12.00;7.70;;;16.50;70.80;;;;;;5054943;28;20702;-77
2021/07/02 00:21:51;;;;;;;10.43;7.47;;;16.40;75.30;;;;;;5054135;28;20599;-80
2021/07/02 00:24:17;;;;;;;14.93;8.07;;;16.40;75.00;;;;;;5054359;28;20195;-76
2021/07/02 00:26:43;;;;;;;11.73;7.97;;;16.40;74.80;;;;;;5054035;28;20226;-78
2021/07/02 00:29:09;;;;;;;15.27;8.03;;;16.40;74.50;;;;;;5054419;28;20255;-80
2021/07/02 00:31:34;;;;;;;13.47;8.43;;;16.40;75.60;;;;;;5054331;28;20182;-80
2021/07/02 00:34:00;;;;;;;13.10;7.97;;;16.50;72.60;;;;;;5053962;28;20179;-81
2021/07/02 00:36:26;;;;;;;10.60;7.73;;;16.50;70.90;;;;;;5053526;28;20169;-80
2021/07/02 00:38:52;;;;;;;12.23;7.47;;;16.40;71.50;;;;;;5054635;28;20228;-80
2021/07/02 00:41:18;;;;;;;16.27;8.43;;;16.30;73.80;;;;;;5056063;28;20227;-81
2021/07/02 00:43:48;;;;;;;11.80;8.03;;;16.30;75.20;;;;;;5058674;28;20182;-77
2021/07/02 00:46:14;;;;;;;13.03;8.13;;;16.40;70.90;;;;;;5059453;28;20180;-81
2021/07/02 00:48:40;;;;;;;12.07;7.43;;;16.30;71.40;;;;;;5054788;28;20171;-75
2021/07/02 00:51:05;;;;;;;14.00;8.20;;;16.30;72.50;;;;;;5055149;28;20302;-81
2021/07/02 00:53:31;;;;;;;12.47;8.20;;;16.10;75.40;;;;;;5054015;28;20176;-80
2021/07/02 00:55:57;;;;;;;11.60;8.17;;;16.00;77.30;;;;;;5053806;28;20176;-81
2021/07/02 00:58:25;;;;;;;14.97;8.43;;;16.10;77.50;;;;;;5051325;28;20657;-78
2021/07/02 01:00:50;;;;;;;13.30;7.80;;;16.10;78.00;;;;;;5054812;28;20211;-78
2021/07/02 01:03:16;;;;;;;13.10;7.73;;;16.20;75.40;;;;;;5060009;28;20229;-79
2021/07/02 01:05:43;;;;;;;12.07;7.97;;;16.10;75.50;;;;;;5065508;28;20255;-77
2021/07/02 01:08:09;;;;;;;13.00;8.13;;;16.00;78.20;;;;;;5064734;28;20247;-74
2021/07/02 01:10:35;;;;;;;11.90;8.23;;;16.00;80.00;;;;;;5055581;28;20597;-79
2021/07/02 01:13:01;;;;;;;12.63;8.37;;;16.20;76.20;;;;;;5055495;28;20204;-79
2021/07/02 01:15:27;;;;;;;10.03;7.47;;;16.20;74.80;;;;;;5054910;28;20201;-77
2021/07/02 01:17:53;;;;;;;12.00;8.57;;;16.30;72.50;;;;;;5054444;28;20570;-79
2021/07/02 01:20:20;;;;;;;13.67;8.70;;;16.10;75.80;;;;;;5055518;28;20204;-78
2021/07/02 01:22:46;;;;;;;16.07;8.33;;;16.00;81.30;;;;;;5056018;28;20199;-79
2021/07/02 01:25:12;;;;;;;15.30;8.70;;;15.80;83.90;;;;;;5066336;28;20177;-79
2021/07/02 01:27:39;;;;;;;13.43;8.70;;;16.00;84.30;;;;;;5067255;28;20177;-80
2021/07/02 01:30:09;;;;;;;11.57;8.60;;;16.00;83.70;;;;;;5065617;28;20171;-80
2021/07/02 01:32:35;;;;;;;13.20;9.00;;;16.00;82.90;;;;;;5060970;28;20178;-79
2021/07/02 01:35:01;;;;;;;11.23;8.17;;;16.00;82.70;;;;;;5059210;28;20174;-79
2021/07/02 01:37:26;;;;;;;12.90;8.27;;;15.80;84.90;;;;;;5054465;28;20180;-79
2021/07/02 01:39:52;;;;;;;15.27;9.17;;;15.80;84.30;;;;;;5053821;28;20229;-77
2021/07/02 01:42:18;;;;;;;14.03;8.77;;;15.90;86.70;;;;;;5053373;28;20267;-80
2021/07/02 01:44:44;;;;;;;13.33;8.10;;;15.70;87.10;;;;;;5053936;28;20631;-80
2021/07/02 01:47:10;;;;;;;15.83;9.50;;;15.70;88.80;;;;;;5053880;28;20243;-79
2021/07/02 01:49:36;;;;;;;15.50;8.43;;;15.70;90.20;;;;;;5053454;28;20241;-78
2021/07/02 01:52:03;;;;;;;14.67;8.67;;;15.70;90.10;;;;;;5053542;28;20546;-80
2021/07/02 01:54:28;;;;;;;11.83;8.70;;;15.80;90.50;;;;;;5052154;28;20234;-78
2021/07/02 01:56:55;;;;;;;13.13;8.53;;;15.90;90.60;;;;;;5053447;28;20173;-79
2021/07/02 01:59:20;;;;;;;12.37;8.73;;;15.90;90.00;;;;;;5053270;28;20198;-78
2021/07/02 02:01:48;;;;;;;12.57;8.23;;;15.90;88.90;;;;;;5053545;28;20181;-80
2021/07/02 02:04:14;;;;;;;16.03;8.70;;;16.10;87.00;;;;;;5053794;28;20214;-79
2021/07/02 02:06:40;;;;;;;14.73;8.40;;;15.90;87.90;;;;;;5053356;28;20176;-80
2021/07/02 02:09:06;;;;;;;15.83;8.47;;;15.90;87.30;;;;;;5054870;28;20649;-76
2021/07/02 02:11:33;;;;;;;13.80;8.90;;;15.80;88.20;;;;;;5057079;28;20172;-77
2021/07/02 02:13:58;;;;;;;16.47;9.00;;;15.70;90.30;;;;;;5055910;28;20195;-76
2021/07/02 02:16:25;;;;;;;14.03;8.33;;;15.60;90.90;;;;;;5057383;28;20520;-80
2021/07/02 02:18:51;;;;;;;14.17;8.60;;;15.60;91.30;;;;;;5057152;28;20175;-78
2021/07/02 02:21:17;;;;;;;13.93;8.13;;;15.70;91.10;;;;;;5056758;28;20197;-79
2021/07/02 02:23:43;;;;;;;14.87;8.57;;;15.70;90.90;;;;;;5056457;28;20689;-78
2021/07/02 02:26:09;;;;;;;13.33;8.53;;;15.70;90.60;;;;;;5055507;28;20180;-80
2021/07/02 02:28:34;;;;;;;15.87;8.37;;;15.60;90.80;;;;;;5056952;28;20233;-80
2021/07/02 02:31:00;;;;;;;14.10;8.30;;;15.60;90.60;;;;;;5056484;28;20169;-79
2021/07/02 02:33:26;;;;;;;12.70;8.93;;;15.60;90.50;;;;;;5056360;28;20165;-78
2021/07/02 02:35:51;;;;;;;13.93;8.33;;;15.70;90.30;;;;;;5056459;28;20724;-78
2021/07/02 02:38:17;;;;;;;15.53;8.77;;;15.70;89.20;;;;;;5056896;28;20537;-79
2021/07/02 02:40:43;;;;;;;12.37;8.63;;;15.70;87.90;;;;;;5061031;28;20206;-74
2021/07/02 02:43:08;;;;;;;13.87;8.20;;;15.80;87.10;;;;;;5077514;28;20211;-74
2021/07/02 02:45:34;;;;;;;10.90;7.97;;;15.80;87.20;;;;;;5075258;28;20220;-78
2021/07/02 02:48:00;;;;;;;13.33;8.60;;;15.80;86.50;;;;;;5057916;28;20248;-79
2021/07/02 02:50:25;;;;;;;14.80;8.87;;;15.90;86.30;;;;;;5057331;28;20621;-80
2021/07/02 02:52:51;;;;;;;16.13;8.73;;;15.90;83.60;;;;;;5056433;28;20230;-79
2021/07/02 02:55:17;;;;;;;15.00;8.47;;;16.00;83.20;;;;;;5062128;28;20182;-76
2021/07/02 02:57:45;;;;;;;12.13;8.47;;;16.00;83.30;;;;;;5077362;28;20170;-76
2021/07/02 03:00:13;;;;;;;12.70;8.20;;;16.10;82.80;;;;;;5074958;28;20200;-80
2021/07/02 03:02:39;;;;;;;13.07;9.17;;;15.90;83.10;;;;;;5056647;28;20255;-79
2021/07/02 03:05:05;;;;;;;16.57;8.67;;;15.80;85.10;;;;;;5066259;28;20194;-79
2021/07/02 03:07:31;;;;;;;13.07;8.20;;;15.80;85.10;;;;;;5067418;28;20224;-78
2021/07/02 03:09:57;;;;;;;12.87;8.13;;;15.90;84.90;;;;;;5071168;28;20663;-78
2021/07/02 03:12:23;;;;;;;13.77;8.67;;;15.90;83.90;;;;;;5070392;28;20168;-80
2021/07/02 03:14:52;;;;;;;12.90;8.37;;;15.90;83.10;;;;;;5071904;28;20271;-77
2021/07/02 03:17:20;;;;;;;12.33;8.40;;;15.90;83.70;;;;;;5068440;28;20175;-77
2021/07/02 03:19:46;;;;;;;13.37;7.93;;;15.80;84.10;;;;;;5067388;28;20198;-77
2021/07/02 03:22:11;;;;;;;15.90;8.73;;;15.80;84.70;;;;;;5064713;28;20211;-78
2021/07/02 03:24:37;;;;;;;14.07;8.87;;;15.70;87.20;;;;;;5058610;28;20181;-80
2021/07/02 03:27:04;;;;;;;12.93;8.93;;;15.70;88.10;;;;;;5057017;28;20231;-75
2021/07/02 03:29:30;;;;;;;14.77;8.63;;;15.60;88.40;;;;;;5059877;28;20255;-77
2021/07/02 03:31:55;;;;;;;15.57;8.37;;;15.50;89.70;;;;;;5067327;28;20164;-75
2021/07/02 03:34:27;;;;;;;15.90;8.37;;;15.50;90.40;;;;;;5059011;28;20184;-79
2021/07/02 03:36:52;;;;;;;14.57;9.03;;;15.40;90.70;;;;;;5059572;28;20291;-79
2021/07/02 03:39:18;;;;;;;13.87;8.90;;;15.30;91.30;;;;;;5056866;28;20181;-78
2021/07/02 03:41:45;;;;;;;12.73;8.60;;;15.40;91.40;;;;;;5060060;28;20175;-78
2021/07/02 03:44:10;;;;;;;15.87;8.47;;;15.30;91.20;;;;;;5056319;28;20174;-81
2021/07/02 03:46:37;;;;;;;13.27;8.10;;;15.30;91.50;;;;;;5055603;28;20174;-80
2021/07/02 03:49:03;;;;;;;13.27;8.63;;;15.20;91.00;;;;;;5055146;28;20176;-77
2021/07/02 03:51:29;;;;;;;13.20;8.80;;;15.40;90.60;;;;;;5055120;28;20173;-75
2021/07/02 03:53:54;;;;;;;12.10;8.13;;;15.50;89.60;;;;;;5054939;28;20234;-76
2021/07/02 03:56:20;;;;;;;12.87;8.23;;;15.60;88.70;;;;;;5055022;28;20653;-80
2021/07/02 03:58:46;;;;;;;14.63;7.73;;;15.50;86.80;;;;;;5056026;28;20681;-80
2021/07/02 04:01:12;;;;;;;14.37;7.50;;;15.50;86.80;;;;;;5055462;28;20230;-78
2021/07/02 04:03:37;;;;;;;11.63;7.57;;;15.50;86.20;;;;;;5056323;28;20538;-76
2021/07/02 04:06:03;;;;;;;10.77;7.60;;;15.40;85.70;;;;;;5054258;28;20257;-78
2021/07/02 04:08:29;;;;;;;16.50;8.87;;;15.40;86.00;;;;;;5055693;28;20263;-79
2021/07/02 04:10:54;;;;;;;11.73;8.03;;;15.40;84.20;;;;;;5055338;28;20180;-79
2021/07/02 04:13:21;;;;;;;11.20;7.67;;;15.40;84.00;;;;;;5054765;28;20180;-81
2021/07/02 04:15:47;;;;;;;11.40;7.33;;;15.50;83.60;;;;;;5054503;28;20605;-77
2021/07/02 04:18:12;;;;;;;11.87;8.07;;;15.60;82.50;;;;;;5053925;28;20173;-77
2021/07/02 04:20:38;;;;;;;15.47;7.57;;;15.70;80.50;;;;;;5054236;28;20291;-80
2021/07/02 04:23:05;;;;;;;11.80;7.60;;;16.00;75.80;;;;;;5054158;28;20189;-74
2021/07/02 04:25:31;;;;;;;11.83;8.10;;;16.20;72.30;;;;;;5055305;28;20655;-78
2021/07/02 04:27:57;;;;;;;13.53;7.43;;;16.20;69.20;;;;;;5054400;28;20173;-78
2021/07/02 04:30:22;;;;;;;16.10;8.13;;;16.30;67.30;;;;;;5054743;28;20173;-79
2021/07/02 04:32:48;;;;;;;13.20;7.63;;;16.20;68.40;;;;;;5053907;28;20173;-78
2021/07/02 04:35:14;;;;;;;19.27;7.93;;;16.20;69.60;;;;;;5054156;28;20659;-80
2021/07/02 04:37:40;;;;;;;13.20;7.10;;;16.20;70.60;;;;;;5054090;28;20516;-79
2021/07/02 04:40:08;;;;;;;18.27;8.03;;;16.20;68.50;;;;;;5054037;28;20257;-79
2021/07/02 04:42:34;;;;;;;11.23;7.10;;;16.20;67.30;;;;;;5053952;28;20236;-79
2021/07/02 04:44:59;;;;;;;12.23;7.03;;;16.30;67.20;;;;;;5054485;28;20209;-79
2021/07/02 04:47:25;;;;;;;16.33;6.90;;;16.40;65.00;;;;;;5053845;28;20168;-75
2021/07/02 04:49:51;;;;;;;13.70;7.20;;;16.30;64.00;;;;;;5054096;28;20250;-76
2021/07/02 04:52:16;;;;;;;13.80;7.30;;;16.30;63.40;;;;;;5052438;28;20175;-79
2021/07/02 04:54:42;;;;;;;15.17;6.90;;;16.50;60.90;;;;;;5053644;28;20195;-81
2021/07/02 04:57:09;;;;;;;14.70;7.40;;;16.40;60.20;;;;;;5055039;28;20185;-80
2021/07/02 04:59:38;;;;;;;15.27;7.17;;;16.60;59.40;;;;;;5054025;28;20169;-80
2021/07/02 05:02:04;;;;;;;12.60;7.33;;;16.80;57.80;;;;;;5054693;28;20219;-80
2021/07/02 05:04:29;;;;;;;15.23;7.27;;;16.90;55.40;;;;;;5056237;28;20196;-80
2021/07/02 05:06:56;;;;;;;16.97;7.77;;;17.20;50.80;;;;;;5055600;28;20173;-80
2021/07/02 05:09:22;;;;;;;13.07;7.20;;;17.10;50.80;;;;;;5054784;28;20256;-77
2021/07/02 05:11:49;;;;;;;11.67;7.23;;;17.30;45.20;;;;;;5055059;28;20256;-76
2021/07/02 05:14:14;;;;;;;16.13;7.80;;;17.30;43.90;;;;;;5066757;28;20192;-76
2021/07/02 05:16:40;;;;;;;12.50;6.97;;;17.20;44.00;;;;;;5066167;28;20165;-75
2021/07/02 05:19:06;;;;;;;11.73;7.73;;;17.10;48.20;;;;;;5058560;28;20165;-75
2021/07/02 05:21:32;;;;;;;13.33;7.77;;;17.10;47.10;;;;;;5054175;28;20214;-77
2021/07/02 05:23:58;;;;;;;11.87;7.30;;;17.20;44.90;;;;;;5055005;28;20189;-74
2021/07/02 05:26:24;;;;;;;13.57;7.60;;;17.20;47.40;;;;;;5055927;28;20518;-76
2021/07/02 05:28:50;;;;;;;14.73;8.10;;;17.20;46.80;;;;;;5055903;28;20179;-78
2021/07/02 05:31:16;;;;;;;16.70;8.13;;;17.50;44.20;;;;;;5055696;28;20179;-77
2021/07/02 05:33:43;;;;;;;13.40;9.20;;;17.50;42.70;;;;;;5055463;28;20149;-80
2021/07/02 05:36:10;;;;;;;16.83;8.90;;;17.60;41.10;;;;;;5052919;28;20181;-77
2021/07/02 05:38:35;;;;;;;17.43;9.13;;;17.70;37.30;;;;;;5052470;28;20177;-78
2021/07/02 05:41:01;;;;;;;18.63;10.70;;;17.70;35.80;;;;;;5052854;28;20208;-79
2021/07/02 05:43:27;;;;;;;13.37;9.03;;;17.60;38.40;;;;;;5052865;28;20169;-78
2021/07/02 05:45:53;;;;;;;13.57;9.60;;;17.40;42.30;;;;;;5056826;28;20209;-79
2021/07/02 05:48:21;;;;;;;15.57;9.50;;;17.40;44.90;;;;;;5056557;28;20252;-76
2021/07/02 05:50:47;;;;;;;16.57;9.53;;;17.50;43.50;;;;;;5058436;28;20182;-77
2021/07/02 05:53:14;;;;;;;14.50;9.10;;;17.50;44.30;;;;;;5056408;28;20166;-80
2021/07/02 05:55:40;;;;;;;15.83;9.40;;;17.50;44.20;;;;;;5055416;28;20247;-78
2021/07/02 05:58:05;;;;;;;19.27;9.63;;;17.50;44.20;;;;;;5058843;28;20272;-79
2021/07/02 06:00:31;;;;;;;16.53;9.77;;;17.60;44.00;;;;;;5058603;28;20209;-79
2021/07/02 06:02:58;;;;;;;21.03;10.43;;;17.60;45.60;;;;;;5058494;28;20622;-76
2021/07/02 06:05:24;;;;;;;18.67;10.23;;;17.60;47.10;;;;;;5056284;28;20169;-79
2021/07/02 06:07:53;;;;;;;16.20;10.37;;;17.50;50.00;;;;;;5056226;28;20176;-79
2021/07/02 06:10:21;;;;;;;15.73;10.47;;;17.50;51.10;;;;;;5071323;28;20667;-75
2021/07/02 06:12:47;;;;;;;17.57;10.80;;;17.40;53.60;;;;;;5056162;28;20263;-80
2021/07/02 06:15:15;;;;;;;14.23;10.53;;;17.50;53.50;;;;;;5055853;28;20615;-78
2021/07/02 06:17:41;;;;;;;15.67;10.10;;;17.60;53.20;;;;;;5056256;28;20633;-75
2021/07/02 06:20:09;;;;;;;16.40;10.17;;;17.70;53.20;;;;;;5056074;28;20205;-81
2021/07/02 06:22:35;;;;;;;16.53;10.90;;;17.60;54.80;;;;;;5056905;28;20194;-78
2021/07/02 06:25:02;;;;;;;15.50;11.50;;;17.70;54.70;;;;;;5057556;28;20177;-77
2021/07/02 06:27:28;;;;;;;15.67;11.20;;;17.70;54.50;;;;;;5056511;28;20165;-79
2021/07/02 06:29:53;;;;;;;16.60;11.00;;;17.90;53.30;;;;;;5056077;28;20248;-78
2021/07/02 06:32:19;;;;;;;17.97;11.97;;;18.00;52.10;;;;;;5055929;28;20173;-76
2021/07/02 06:34:45;;;;;;;18.80;11.97;;;18.20;50.40;;;;;;5056308;28;20633;-80
2021/07/02 06:37:11;;;;;;;19.67;12.40;;;18.10;51.50;;;;;;5056075;28;20632;-77
2021/07/02 06:39:36;;;;;;;19.93;12.43;;;18.00;54.20;;;;;;5056249;28;20555;-81
2021/07/02 06:42:04;;;;;;;15.73;12.07;;;17.90;56.50;;;;;;5056052;28;20231;-82
2021/07/02 06:44:29;;;;;;;16.27;11.43;;;17.90;59.90;;;;;;5055720;28;20547;-77
2021/07/02 06:46:55;;;;;;;19.43;13.67;;;18.00;59.10;;;;;;5053381;28;20181;-78
2021/07/02 06:49:21;;;;;;;19.83;13.17;;;18.30;57.70;;;;;;5055425;28;20260;-76
2021/07/02 06:51:46;;;;;;;17.93;13.17;;;18.10;58.30;;;;;;5056221;28;20182;-77
2021/07/02 06:54:12;;;;;;;20.50;13.03;;;18.30;58.10;;;;;;5057060;28;20173;-79
2021/07/02 06:56:59;;;;;;;17.80;12.77;;;18.20;59.00;;;;;;5054810;28;20199;-74
2021/07/02 06:59:23;;;;;;;16.63;12.60;;;18.30;59.00;;;;;;5056068;28;20181;-77
2021/07/02 07:01:49;;;;;;;21.33;12.57;;;18.40;58.40;;;;;;5057325;28;20181;-76
2021/07/02 07:04:15;;;;;;;17.77;13.47;;;18.60;58.20;;;;;;5055660;28;20182;-81
2021/07/02 07:06:40;;;;;;;20.20;14.40;;;18.80;55.70;;;;;;5058008;28;20173;-80
2021/07/02 07:09:07;;;;;;;17.93;13.60;;;18.70;55.30;;;;;;5057547;28;20180;-76
2021/07/02 07:11:33;;;;;;;18.73;13.47;;;18.90;55.50;;;;;;5057740;28;20198;-76
2021/07/02 07:13:58;;;;;;;20.20;13.07;;;19.00;55.20;;;;;;5057063;28;20657;-74
2021/07/02 07:16:24;;;;;;;25.57;14.20;;;19.20;53.30;;;;;;5055230;28;20168;-78
2021/07/02 07:18:50;;;;;;;18.67;13.23;;;19.20;52.10;;;;;;5055324;28;20184;-80
2021/07/02 07:21:15;;;;;;;18.40;13.40;;;19.40;51.00;;;;;;5066039;28;20212;-77
2021/07/02 07:23:41;;;;;;;24.30;14.70;;;19.60;47.00;;;;;;5071263;28;20215;-77
2021/07/02 07:26:06;;;;;;;18.47;13.90;;;19.50;44.00;;;;;;5057332;28;20169;-81
2021/07/02 07:28:32;;;;;;;22.93;14.30;;;19.50;47.50;;;;;;5056697;28;20200;-83
2021/07/02 07:30:59;;;;;;;16.77;13.97;;;19.70;44.40;;;;;;5055917;28;20545;-82
2021/07/02 07:33:29;;;;;;;21.23;13.87;;;19.80;44.60;;;;;;5055730;28;20175;-76
2021/07/02 07:35:55;;;;;;;25.07;14.20;;;20.00;39.60;;;;;;5056143;28;20154;-79
2021/07/02 07:38:21;;;;;;;18.47;13.47;;;20.00;38.20;;;;;;5056458;28;20178;-80
2021/07/02 07:40:46;;;;;;;16.53;12.57;;;20.00;38.20;;;;;;5058380;28;20237;-80
2021/07/02 07:43:12;;;;;;;19.47;13.00;;;20.00;30.50;;;;;;5063508;28;20178;-78
2021/07/02 07:45:38;;;;;;;20.73;13.73;;;19.90;38.40;;;;;;5071704;28;20183;-76
2021/07/02 07:48:03;;;;;;;19.47;12.90;;;20.00;39.10;;;;;;5071412;28;20186;-76
2021/07/02 07:50:33;;;;;;;17.17;12.13;;;20.10;30.60;;;;;;5069460;28;20208;-77
2021/07/02 07:53:01;;;;;;;19.87;12.73;;;20.30;31.50;;;;;;5069243;28;20170;-75
2021/07/02 07:55:28;;;;;;;16.47;12.37;;;20.40;30.00;;;;;;5069452;28;20588;-76
2021/07/02 07:57:55;;;;;;;16.60;12.00;;;20.10;32.70;;;;;;5068293;28;20619;-76
2021/07/02 08:00:22;;;;;;;13.70;11.67;;;20.10;32.00;;;;;;5056102;28;20208;-82
2021/07/02 08:02:49;;;;;;;18.80;13.87;;;20.10;31.50;;;;;;5055951;28;20193;-82
2021/07/02 08:05:17;;;;;;;18.90;13.13;;;20.10;38.80;;;;;;5054962;28;20188;-82
2021/07/02 08:07:46;;;;;;;15.20;12.10;;;20.20;37.00;;;;;;5052938;28;20167;-82
2021/07/02 08:10:17;;;;;;;16.03;10.00;;;20.20;27.20;;;;;;5055136;28;20161;-79
2021/07/02 08:12:43;;;;;;;17.07;13.07;;;20.20;27.10;;;;;;5059149;28;20184;-76
2021/07/02 08:15:10;;;;;;;16.93;13.80;;;20.30;32.20;;;;;;5075951;28;20580;-75
2021/07/02 08:17:36;;;;;;;19.63;15.07;;;20.30;34.30;;;;;;5068193;28;20525;-77
2021/07/02 08:20:05;;;;;;;18.83;13.80;;;20.20;38.20;;;;;;5055274;28;20244;-79
2021/07/02 08:22:30;;;;;;;23.97;16.87;;;20.30;36.10;;;;;;5055226;28;20204;-83
2021/07/02 08:25:10;;;;;;;19.20;12.80;;;20.30;40.10;;;;;;5058143;28;20181;-79
2021/07/02 08:30:36;;;;;;;12.70;9.20;;;20.40;19.40;;;;;;5054313;28;20243;-80
2021/07/02 08:33:02;;;;;;;13.73;8.83;;;20.40;16.10;;;;;;5054042;28;20154;-82
2021/07/02 08:35:30;;;;;;;10.30;7.63;;;20.30;13.00;;;;;;5056565;28;20177;-78
2021/07/02 08:37:56;;;;;;;10.67;7.33;;;20.20;10.50;;;;;;5054005;28;20187;-81
2021/07/02 08:40:22;;;;;;;15.63;9.33;;;20.10;13.00;;;;;;5054189;28;20208;-80
2021/07/02 08:42:49;;;;;;;13.17;8.43;;;20.00;17.90;;;;;;5054467;28;20177;-82
2021/07/02 08:45:15;;;;;;;11.77;8.03;;;20.00;18.30;;;;;;5054148;28;20538;-82
2021/07/02 08:47:43;;;;;;;13.87;8.50;;;20.10;13.10;;;;;;5053909;28;20175;-82
2021/07/02 08:50:09;;;;;;;15.53;9.87;;;20.30;16.20;;;;;;5053967;28;20250;-81
2021/07/02 08:52:38;;;;;;;15.30;9.87;;;20.40;16.30;;;;;;5053860;28;20668;-75
2021/07/02 08:55:04;;;;;;;13.13;8.30;;;20.50;17.80;;;;;;5054561;28;20185;-82
2021/07/02 08:57:31;;;;;;;11.43;8.60;;;20.50;8.50;;;;;;5056206;28;20217;-82
2021/07/02 08:59:59;;;;;;;14.43;9.33;;;20.50;10.30;;;;;;5057634;28;20258;-82
2021/07/02 09:02:31;;;;;;;8.63;6.33;;;20.60;10.90;;;;;;5063242;28;20170;-78
2021/07/02 09:04:57;;;;;;;10.87;7.50;;;20.70;1.00;;;;;;5060637;28;20185;-77
2021/07/02 09:07:23;;;;;;;9.60;7.73;;;20.90;1.00;;;;;;5063014;28;20272;-75
2021/07/02 09:09:57;;;;;;;10.17;6.53;;;20.80;1.40;;;;;;5061957;28;20646;-76
2021/07/02 09:12:35;;;;;;;10.27;5.87;;;20.90;1.00;;;;;;5064402;28;20170;-82
2021/07/02 09:15:06;;;;;;;10.60;6.20;;;20.90;1.00;;;;;;5058704;28;20207;-81
2021/07/02 09:17:35;;;;;;;11.37;7.03;;;21.00;1.00;;;;;;5056359;28;20168;-83
2021/07/02 09:20:08;;;;;;;10.27;7.17;;;21.10;1.00;;;;;;5055376;28;20190;-82
2021/07/02 09:22:53;;;;;;;12.23;7.13;;;21.10;1.00;;;;;;5054439;28;20213;-83
2021/07/02 09:25:39;;;;;;;12.27;7.10;;;21.20;1.00;;;;;;5054994;28;20655;-83
2021/07/02 09:28:11;;;;;;;12.17;6.97;;;21.30;1.00;;;;;;5053308;28;20268;-81
2021/07/02 09:30:44;;;;;;;11.23;7.10;;;21.40;1.00;;;;;;5054136;28;20255;-81
2021/07/02 09:33:12;;;;;;;13.33;7.60;;;21.50;1.00;;;;;;5053078;28;20181;-78
2021/07/02 09:35:57;;;;;;;10.90;6.83;;;21.50;1.00;;;;;;5053926;28;20250;-81
2021/07/02 09:38:41;;;;;;;10.43;7.37;;;21.70;1.00;;;;;;5054018;28;20198;-78
2021/07/02 09:41:09;;;;;;;10.93;7.57;;;21.50;1.00;;;;;;5053984;28;20200;-84
2021/07/02 09:43:38;;;;;;;10.80;6.83;;;21.40;1.00;;;;;;5054105;28;20185;-80
2021/07/02 09:46:05;;;;;;;10.33;7.83;;;21.40;1.00;;;;;;5054612;28;20167;-80
2021/07/02 09:48:34;;;;;;;10.30;7.20;;;21.60;1.00;;;;;;5053578;28;20201;-82
2021/07/02 09:51:09;;;;;;;10.73;8.90;;;21.60;1.00;;;;;;5058503;28;20264;-80
2021/07/02 09:53:38;;;;;;;11.50;8.60;;;21.50;1.00;;;;;;5053602;28;20174;-82
2021/07/02 09:56:20;;;;;;;12.10;7.77;;;21.40;1.00;;;;;;5054451;28;20174;-83
2021/07/02 09:58:46;;;;;;;12.20;7.60;;;21.50;1.00;;;;;;5053464;28;20186;-80
2021/07/02 10:01:29;;;;;;;11.40;8.03;;;21.70;1.00;;;;;;5051689;28;20216;-82
2021/07/02 10:04:07;;;;;;;10.87;7.77;;;22.00;1.00;;;;;;5052627;28;20168;-82
2021/07/02 10:06:32;;;;;;;13.77;8.53;;;22.00;1.00;;;;;;5051554;28;20263;-80
2021/07/02 10:09:03;;;;;;;13.10;7.60;;;22.30;1.00;;;;;;5052856;28;20654;-81
2021/07/02 10:11:29;;;;;;;11.40;8.33;;;22.40;1.00;;;;;;5052984;28;20169;-80
2021/07/02 10:13:56;;;;;;;9.80;7.83;;;22.50;1.00;;;;;;5070199;28;20196;-82
2021/07/02 10:16:24;;;;;;;9.97;6.83;;;22.70;1.00;;;;;;5054091;28;20169;-79
2021/07/02 10:18:53;;;;;;;16.27;8.13;;;22.70;1.00;;;;;;5053590;28;20189;-79
2021/07/02 10:21:22;;;;;;;14.47;9.87;;;22.60;1.00;;;;;;5053017;28;20196;-76
2021/07/02 10:23:51;;;;;;;11.40;7.73;;;22.50;1.00;;;;;;5053261;28;20289;-80
2021/07/02 10:26:21;;;;;;;10.90;8.60;;;22.50;1.00;;;;;;5053895;28;20212;-78
2021/07/02 10:28:47;;;;;;;10.23;7.47;;;22.40;1.00;;;;;;5052866;28;20643;-77
2021/07/02 10:31:15;;;;;;;11.90;8.10;;;22.00;1.00;;;;;;5056127;28;20176;-80
2021/07/02 10:33:50;;;;;;;9.67;6.97;;;21.70;1.00;;;;;;5056518;28;20656;-78
2021/07/02 10:36:18;;;;;;;11.13;6.73;;;21.60;1.00;;;;;;5056556;28;20175;-77
2021/07/02 10:38:52;;;;;;;7.97;5.53;;;21.50;1.00;;;;;;5055930;28;20179;-79
2021/07/02 10:41:20;;;;;;;11.27;7.30;;;21.60;1.00;;;;;;5056229;28;20691;-77
2021/07/02 10:44:06;;;;;;;10.90;7.50;;;21.80;1.00;;;;;;5055872;28;20172;-78
2021/07/02 10:46:39;;;;;;;12.03;6.90;;;22.00;1.00;;;;;;5055306;28;20194;-79
2021/07/02 10:49:16;;;;;;;7.97;6.90;;;22.00;1.00;;;;;;5055027;28;20295;-76
2021/07/02 10:51:50;;;;;;;11.00;6.63;;;22.20;1.00;;;;;;5055546;28;20173;-77
2021/07/02 10:54:16;;;;;;;9.67;6.40;;;22.00;1.00;;;;;;5055438;28;20168;-77
2021/07/02 10:56:54;;;;;;;10.30;7.13;;;21.80;1.00;;;;;;5055338;28;20170;-78
2021/07/02 10:59:20;;;;;;;8.70;6.00;;;21.90;1.00;;;;;;5055053;28;20236;-79
2021/07/02 11:02:05;;;;;;;9.27;6.77;;;22.00;1.00;;;;;;5055242;28;20369;-77
2021/07/02 11:04:31;;;;;;;8.67;6.80;;;21.90;1.00;;;;;;5054567;28;20214;-79
2021/07/02 11:06:57;;;;;;;10.50;7.30;;;22.00;1.00;;;;;;5055359;28;20168;-78
2021/07/02 11:12:26;;;;;;;11.27;6.17;;;22.20;1.00;;;;;;5055222;28;20184;-77
2021/07/02 11:14:52;;;;;;;6.97;4.93;;;22.20;1.00;;;;;;5058204;28;20187;-75
2021/07/02 11:17:19;;;;;;;8.57;6.10;;;22.40;1.00;;;;;;5062192;28;20161;-76
2021/07/02 11:19:46;;;;;;;8.63;5.93;;;22.50;1.00;;;;;;5055445;28;20218;-77
2021/07/02 11:22:32;;;;;;;7.57;5.13;;;22.70;1.00;;;;;;5055537;28;20197;-77
2021/07/02 11:25:00;;;;;;;8.20;5.83;;;22.70;1.00;;;;;;5055560;28;20165;-77
2021/07/02 11:27:43;;;;;;;8.83;5.87;;;22.70;1.00;;;;;;5055262;28;20240;-77
2021/07/02 11:33:02;;;;;;;8.53;6.30;;;23.10;1.00;;;;;;5055094;28;20189;-79
2021/07/02 11:35:38;;;;;;;7.23;5.83;;;23.10;1.00;;;;;;5055287;28;20182;-75
2021/07/02 11:38:20;;;;;;;11.00;6.60;;;23.00;1.00;;;;;;5055168;28;20660;-77
2021/07/02 11:40:46;;;;;;;8.03;6.30;;;23.10;1.00;;;;;;5059398;28;20721;-75
2021/07/02 11:43:12;;;;;;;8.87;6.97;;;23.10;1.00;;;;;;5057695;28;20182;-75
2021/07/02 11:45:51;;;;;;;11.57;6.80;;;22.90;1.00;;;;;;5059286;28;20171;-77
2021/07/02 11:48:21;;;;;;;8.97;6.77;;;22.90;1.00;;;;;;5058423;28;20465;-77
2021/07/02 11:51:00;;;;;;;8.40;6.50;;;23.00;1.00;;;;;;5059136;28;20176;-76
2021/07/02 11:53:41;;;;;;;8.40;5.23;;;23.20;1.00;;;;;;5057375;28;20640;-77
2021/07/02 11:56:34;;;;;;;8.50;5.37;;;23.10;1.00;;;;;;5058442;28;20153;-76
2021/07/02 11:59:01;;;;;;;6.60;5.00;;;23.20;1.00;;;;;;5052927;28;20637;-78
2021/07/02 12:01:38;;;;;;;9.40;6.00;;;23.30;1.00;;;;;;5054695;28;20209;-77
2021/07/02 12:04:17;;;;;;;9.63;6.07;;;23.40;1.00;;;;;;5054299;28;20171;-76
2021/07/02 12:06:48;;;;;;;9.20;5.77;;;23.50;1.00;;;;;;5054392;28;20292;-78
2021/07/02 12:09:24;;;;;;;11.43;6.83;;;23.50;1.00;;;;;;5054806;28;20197;-76
2021/07/02 12:11:58;;;;;;;8.17;5.47;;;23.50;1.00;;;;;;5054392;28;20178;-75
2021/07/02 12:14:35;;;;;;;9.47;6.07;;;23.70;1.00;;;;;;5055127;28;20282;-76
2021/07/02 12:17:03;;;;;;;7.73;5.33;;;23.60;1.00;;;;;;5056173;28;20197;-76
2021/07/02 12:19:32;;;;;;;9.90;6.57;;;23.60;1.00;;;;;;5059098;28;20178;-76
2021/07/02 12:22:04;;;;;;;8.70;6.60;;;23.50;1.00;;;;;;5067681;28;20235;-76
2021/07/02 12:24:32;;;;;;;8.80;5.80;;;23.50;1.00;;;;;;5059621;28;20170;-77
2021/07/02 12:27:01;;;;;;;12.60;9.37;;;23.80;1.00;;;;;;5054973;28;20157;-77
2021/07/02 12:29:28;;;;;;;8.80;6.20;;;24.10;1.00;;;;;;5062105;28;20173;-77
2021/07/02 12:32:03;;;;;;;11.03;7.40;;;23.80;1.00;;;;;;5057317;28;20174;-80
2021/07/02 12:34:35;;;;;;;10.00;8.37;;;24.00;1.00;;;;;;5053441;28;20169;-82
2021/07/02 12:37:11;;;;;;;8.67;5.67;;;24.10;1.00;;;;;;5053133;28;20192;-75
2021/07/02 12:39:38;;;;;;;7.90;5.70;;;24.20;1.00;;;;;;5053508;28;20183;-84
2021/07/02 12:42:11;;;;;;;10.43;6.33;;;24.10;1.00;;;;;;5053496;28;20243;-76
2021/07/02 12:44:47;;;;;;;6.70;5.40;;;24.00;1.00;;;;;;5053292;28;20175;-77
2021/07/02 12:47:14;;;;;;;10.27;6.70;;;23.90;1.00;;;;;;5053141;28;20165;-78
2021/07/02 12:49:48;;;;;;;9.80;6.37;;;23.70;1.00;;;;;;5054395;28;20646;-77
2021/07/02 12:54:56;;;;;;;8.07;6.73;;;24.00;1.00;;;;;;5054103;28;20182;-76